Neepawa, Canada
Current Conditions -  °F | °C
As of 10:00 PM on Friday 24 Oct 2014 (Local Time) from CYBR Reporting Station
Clear Clear  
Wind Chill: 40°   Ceiling: Unl
Heat Index: 46°   Visibility: 15mi
Dew Point: 32°   Wind: 15mph
Humidity: 57%   Direction: 290°WNW
Pressure: 29.87"   Gusts: NA
Location:  50.23°N, 99.45°W
Report Text: CYBR 250300Z 29013KT 15SM SKC 08/00 A2987 RMK SLP126
Loading
Personal Weather Stations






























Interactive Weather Map
Tropical Storm Tracking
New forecast layout! Learn more

10-Day Weather Forecast

Advertisements
Track Severe Weather on mobile